CPA183 RKSI-RKPC
Flight info
| Callsign | CPA183 |
|---|---|
| Flight time | 0h 42m |
| Altitude | 34000 |
| Route | BOPTA2Y BOPTA Z51 BEDES Y711 DOTOL DOTOL1M |
| Aircraft | A359/H-SBGDR/L |
Departure
| Time | 2026-05-01 11:11 |
|---|---|
| Airport | Incheon International Airport (RKSI) |
Arrival
| Time | 2026-05-01 11:53 |
|---|---|
| Airport | Jeju International Airport (RKPC) |
| Time | Latitude | Longitude | Altitude | Speed | Heading |
|---|---|---|---|---|---|
| 2026-05-01 10:40 | 37.45539 | 126.44564 | 38 ft | 0 kts | 327° |
| 2026-05-01 10:54 | 37.45532 | 126.44570 | 36 ft | 2 kts | 322° |
| 2026-05-01 10:55 | 37.45519 | 126.44583 | 35 ft | 2 kts | 326° |
| 2026-05-01 10:55 | 37.45505 | 126.44595 | 38 ft | 2 kts | 323° |
| 2026-05-01 10:55 | 37.45492 | 126.44607 | 36 ft | 2 kts | 326° |
| 2026-05-01 10:55 | 37.45485 | 126.44623 | 35 ft | 2 kts | 237° |
| 2026-05-01 10:56 | 37.45489 | 126.44632 | 35 ft | 0 kts | 237° |
| 2026-05-01 11:01 | 37.45472 | 126.44600 | 34 ft | 7 kts | 236° |
| 2026-05-01 11:01 | 37.45435 | 126.44531 | 38 ft | 12 kts | 236° |
| 2026-05-01 11:01 | 37.45379 | 126.44434 | 38 ft | 15 kts | 232° |
| 2026-05-01 11:02 | 37.45309 | 126.44318 | 38 ft | 19 kts | 233° |
| 2026-05-01 11:02 | 37.45235 | 126.44182 | 38 ft | 19 kts | 236° |
| 2026-05-01 11:02 | 37.45146 | 126.44123 | 38 ft | 15 kts | 166° |
| 2026-05-01 11:02 | 37.45044 | 126.44189 | 38 ft | 19 kts | 176° |
| 2026-05-01 11:03 | 37.44911 | 126.44261 | 37 ft | 24 kts | 143° |
| 2026-05-01 11:03 | 37.44762 | 126.44397 | 38 ft | 23 kts | 144° |
| 2026-05-01 11:03 | 37.44649 | 126.44498 | 38 ft | 23 kts | 145° |
| 2026-05-01 11:03 | 37.44498 | 126.44602 | 38 ft | 27 kts | 150° |
| 2026-05-01 11:04 | 37.44364 | 126.44744 | 38 ft | 11 kts | 143° |
| 2026-05-01 11:04 | 37.44361 | 126.44749 | 38 ft | 0 kts | 136° |
| 2026-05-01 11:04 | 37.44360 | 126.44752 | 38 ft | 0 kts | 120° |
| 2026-05-01 11:04 | 37.44361 | 126.44758 | 38 ft | 1 kts | 92° |
| 2026-05-01 11:05 | 37.44369 | 126.44765 | 38 ft | 1 kts | 37° |
| 2026-05-01 11:05 | 37.44382 | 126.44757 | 38 ft | 5 kts | 330° |
| 2026-05-01 11:05 | 37.44428 | 126.44686 | 38 ft | 15 kts | 305° |
| 2026-05-01 11:05 | 37.44477 | 126.44619 | 38 ft | 5 kts | 318° |
| 2026-05-01 11:06 | 37.44508 | 126.44595 | 38 ft | 6 kts | 329° |
| 2026-05-01 11:06 | 37.44559 | 126.44546 | 38 ft | 10 kts | 309° |
| 2026-05-01 11:06 | 37.44555 | 126.44484 | 38 ft | 8 kts | 244° |
| 2026-05-01 11:07 | 37.44511 | 126.44379 | 38 ft | 5 kts | 239° |
| 2026-05-01 11:07 | 37.44494 | 126.44343 | 38 ft | 6 kts | 239° |
| 2026-05-01 11:07 | 37.44462 | 126.44297 | 38 ft | 8 kts | 226° |
| 2026-05-01 11:07 | 37.44448 | 126.44258 | 38 ft | 0 kts | 254° |
| 2026-05-01 11:10 | 37.44436 | 126.44218 | 38 ft | 10 kts | 248° |
| 2026-05-01 11:10 | 37.44416 | 126.44103 | 38 ft | 13 kts | 283° |
| 2026-05-01 11:10 | 37.44459 | 126.44044 | 38 ft | 6 kts | 334° |
| 2026-05-01 11:10 | 37.44650 | 126.43927 | 38 ft | 62 kts | 330° |
| 2026-05-01 11:11 | 37.45206 | 126.43521 | 38 ft | 121 kts | 326° |
| 2026-05-01 11:11 | 37.46047 | 126.42841 | 206 ft | 157 kts | 321° |
| 2026-05-01 11:11 | 37.47014 | 126.42059 | 673 ft | 173 kts | 321° |
| 2026-05-01 11:11 | 37.48076 | 126.41175 | 1211 ft | 191 kts | 321° |
| 2026-05-01 11:12 | 37.49179 | 126.40216 | 1729 ft | 193 kts | 321° |
| 2026-05-01 11:12 | 37.50276 | 126.39269 | 2221 ft | 194 kts | 321° |
| 2026-05-01 11:12 | 37.51385 | 126.38290 | 2721 ft | 194 kts | 320° |
| 2026-05-01 11:12 | 37.52326 | 126.37081 | 3209 ft | 192 kts | 303° |
| 2026-05-01 11:13 | 37.52822 | 126.35534 | 3698 ft | 192 kts | 280° |
| 2026-05-01 11:13 | 37.52657 | 126.33869 | 4182 ft | 196 kts | 251° |
| 2026-05-01 11:13 | 37.51789 | 126.32543 | 4647 ft | 203 kts | 219° |
| 2026-05-01 11:13 | 37.50424 | 126.32012 | 5020 ft | 214 kts | 183° |
| 2026-05-01 11:14 | 37.48942 | 126.32383 | 5388 ft | 221 kts | 166° |
| 2026-05-01 11:14 | 37.47470 | 126.33008 | 5778 ft | 226 kts | 163° |
| 2026-05-01 11:14 | 37.45969 | 126.33665 | 6158 ft | 231 kts | 163° |
| 2026-05-01 11:14 | 37.44431 | 126.34316 | 6527 ft | 235 kts | 164° |
| 2026-05-01 11:15 | 37.42859 | 126.34956 | 6900 ft | 240 kts | 165° |
| 2026-05-01 11:15 | 37.41250 | 126.35596 | 7259 ft | 244 kts | 165° |
| 2026-05-01 11:15 | 37.39606 | 126.36241 | 7633 ft | 249 kts | 165° |
| 2026-05-01 11:15 | 37.37939 | 126.36774 | 7996 ft | 252 kts | 175° |
| 2026-05-01 11:16 | 37.36182 | 126.36818 | 8319 ft | 258 kts | 180° |
| 2026-05-01 11:16 | 37.34377 | 126.37354 | 8478 ft | 276 kts | 164° |
| 2026-05-01 11:16 | 37.32494 | 126.38136 | 8659 ft | 293 kts | 163° |
| 2026-05-01 11:16 | 37.30519 | 126.38972 | 8984 ft | 304 kts | 163° |
| 2026-05-01 11:17 | 37.28492 | 126.39816 | 9472 ft | 309 kts | 163° |
| 2026-05-01 11:17 | 37.26431 | 126.40659 | 9995 ft | 313 kts | 163° |
| 2026-05-01 11:17 | 37.24350 | 126.41500 | 10481 ft | 316 kts | 163° |
| 2026-05-01 11:17 | 37.22244 | 126.42345 | 10984 ft | 319 kts | 163° |
| 2026-05-01 11:18 | 37.20113 | 126.43197 | 11483 ft | 322 kts | 163° |
| 2026-05-01 11:18 | 37.17965 | 126.44051 | 11999 ft | 325 kts | 163° |
| 2026-05-01 11:18 | 37.15800 | 126.44913 | 12515 ft | 328 kts | 163° |
| 2026-05-01 11:18 | 37.13599 | 126.45787 | 12945 ft | 335 kts | 163° |
| 2026-05-01 11:19 | 37.11333 | 126.46687 | 13182 ft | 348 kts | 163° |
| 2026-05-01 11:19 | 37.08974 | 126.47621 | 13410 ft | 361 kts | 163° |
| 2026-05-01 11:19 | 37.06577 | 126.48569 | 13715 ft | 369 kts | 163° |
| 2026-05-01 11:19 | 37.04107 | 126.49546 | 14103 ft | 374 kts | 163° |
| 2026-05-01 11:20 | 37.01618 | 126.50531 | 14535 ft | 377 kts | 163° |
| 2026-05-01 11:20 | 36.99099 | 126.51527 | 14968 ft | 380 kts | 163° |
| 2026-05-01 11:20 | 36.96565 | 126.52528 | 15409 ft | 383 kts | 164° |
| 2026-05-01 11:20 | 36.94014 | 126.53535 | 15823 ft | 386 kts | 164° |
| 2026-05-01 11:21 | 36.91437 | 126.54551 | 16276 ft | 389 kts | 164° |
| 2026-05-01 11:21 | 36.88840 | 126.55575 | 16716 ft | 392 kts | 164° |
| 2026-05-01 11:21 | 36.86224 | 126.56605 | 17150 ft | 395 kts | 164° |
| 2026-05-01 11:21 | 36.83588 | 126.57643 | 17584 ft | 398 kts | 164° |
| 2026-05-01 11:22 | 36.80938 | 126.58685 | 17995 ft | 400 kts | 164° |
| 2026-05-01 11:22 | 36.78268 | 126.59736 | 18387 ft | 403 kts | 165° |
| 2026-05-01 11:22 | 36.75607 | 126.60780 | 18716 ft | 407 kts | 165° |
| 2026-05-01 11:22 | 36.72897 | 126.61846 | 19044 ft | 410 kts | 165° |
| 2026-05-01 11:23 | 36.70150 | 126.62875 | 19366 ft | 413 kts | 166° |
| 2026-05-01 11:23 | 36.67371 | 126.63826 | 19651 ft | 416 kts | 168° |
| 2026-05-01 11:23 | 36.64543 | 126.64748 | 19878 ft | 423 kts | 168° |
| 2026-05-01 11:23 | 36.61667 | 126.65664 | 20013 ft | 431 kts | 168° |
| 2026-05-01 11:24 | 36.58729 | 126.66604 | 20166 ft | 438 kts | 168° |
| 2026-05-01 11:24 | 36.55748 | 126.67574 | 20305 ft | 446 kts | 168° |
| 2026-05-01 11:24 | 36.49658 | 126.69596 | 20594 ft | 459 kts | 168° |
| 2026-05-01 11:25 | 36.46548 | 126.70639 | 20780 ft | 464 kts | 168° |
| 2026-05-01 11:25 | 36.41335 | 126.72389 | 21183 ft | 469 kts | 168° |
| 2026-05-01 11:25 | 36.37135 | 126.73798 | 21511 ft | 473 kts | 168° |
| 2026-05-01 11:26 | 36.33936 | 126.74876 | 21642 ft | 478 kts | 168° |
| 2026-05-01 11:26 | 36.28496 | 126.76709 | 21827 ft | 487 kts | 168° |
| 2026-05-01 11:26 | 36.25200 | 126.77816 | 21933 ft | 493 kts | 168° |
| 2026-05-01 11:27 | 36.21896 | 126.78926 | 21960 ft | 500 kts | 168° |
| 2026-05-01 11:27 | 36.18511 | 126.80055 | 21960 ft | 507 kts | 169° |
| 2026-05-01 11:27 | 36.15035 | 126.80764 | 21961 ft | 505 kts | 180° |
| 2026-05-01 11:27 | 36.11521 | 126.80819 | 21967 ft | 501 kts | 186° |
| 2026-05-01 11:28 | 36.08043 | 126.80617 | 21967 ft | 499 kts | 189° |
| 2026-05-01 11:28 | 36.04586 | 126.80271 | 21966 ft | 498 kts | 190° |
| 2026-05-01 11:28 | 36.01129 | 126.79857 | 21968 ft | 497 kts | 191° |
| 2026-05-01 11:29 | 35.94251 | 126.79006 | 21967 ft | 496 kts | 191° |
| 2026-05-01 11:29 | 35.90852 | 126.78606 | 21971 ft | 496 kts | 190° |
| 2026-05-01 11:29 | 35.83963 | 126.77842 | 21973 ft | 496 kts | 190° |
| 2026-05-01 11:30 | 35.80514 | 126.77465 | 21970 ft | 496 kts | 190° |
| 2026-05-01 11:30 | 35.77071 | 126.77092 | 21980 ft | 496 kts | 190° |
| 2026-05-01 11:30 | 35.73639 | 126.76721 | 21977 ft | 495 kts | 190° |
| 2026-05-01 11:30 | 35.70198 | 126.76350 | 21976 ft | 495 kts | 190° |
| 2026-05-01 11:31 | 35.66750 | 126.75979 | 21981 ft | 495 kts | 190° |
| 2026-05-01 11:31 | 35.63362 | 126.75614 | 21982 ft | 495 kts | 190° |
| 2026-05-01 11:31 | 35.59927 | 126.75245 | 21984 ft | 494 kts | 190° |
| 2026-05-01 11:31 | 35.56499 | 126.74877 | 21988 ft | 494 kts | 190° |
| 2026-05-01 11:32 | 35.53070 | 126.74508 | 21991 ft | 493 kts | 190° |
| 2026-05-01 11:32 | 35.49655 | 126.74142 | 21991 ft | 493 kts | 190° |
| 2026-05-01 11:32 | 35.46232 | 126.73783 | 21993 ft | 493 kts | 190° |
| 2026-05-01 11:32 | 35.42815 | 126.73421 | 21988 ft | 492 kts | 190° |
| 2026-05-01 11:33 | 35.39398 | 126.73056 | 21992 ft | 491 kts | 190° |
| 2026-05-01 11:33 | 35.36030 | 126.72692 | 21997 ft | 491 kts | 190° |
| 2026-05-01 11:33 | 35.32625 | 126.72323 | 21999 ft | 491 kts | 190° |
| 2026-05-01 11:33 | 35.29215 | 126.71956 | 21998 ft | 491 kts | 190° |
| 2026-05-01 11:34 | 35.25771 | 126.71586 | 21998 ft | 491 kts | 190° |
| 2026-05-01 11:34 | 35.22410 | 126.71227 | 22002 ft | 491 kts | 190° |
| 2026-05-01 11:34 | 35.19010 | 126.70865 | 21999 ft | 490 kts | 190° |
| 2026-05-01 11:34 | 35.15613 | 126.70505 | 21999 ft | 490 kts | 190° |
| 2026-05-01 11:35 | 35.12214 | 126.70145 | 21994 ft | 489 kts | 190° |
| 2026-05-01 11:35 | 35.08819 | 126.69791 | 21996 ft | 489 kts | 190° |
| 2026-05-01 11:35 | 35.05422 | 126.69432 | 22002 ft | 488 kts | 190° |
| 2026-05-01 11:35 | 35.02022 | 126.69201 | 22000 ft | 492 kts | 185° |
| 2026-05-01 11:36 | 34.98593 | 126.69266 | 22000 ft | 493 kts | 183° |
| 2026-05-01 11:36 | 34.95160 | 126.69406 | 22005 ft | 493 kts | 182° |
| 2026-05-01 11:36 | 34.91725 | 126.69570 | 21996 ft | 493 kts | 182° |
| 2026-05-01 11:36 | 34.88288 | 126.69741 | 22004 ft | 493 kts | 182° |
| 2026-05-01 11:37 | 34.84856 | 126.69916 | 21999 ft | 493 kts | 182° |
| 2026-05-01 11:37 | 34.81431 | 126.70093 | 22000 ft | 492 kts | 182° |
| 2026-05-01 11:37 | 34.78010 | 126.70270 | 21996 ft | 492 kts | 182° |
| 2026-05-01 11:37 | 34.74626 | 126.70444 | 21999 ft | 492 kts | 182° |
| 2026-05-01 11:38 | 34.71203 | 126.70620 | 22009 ft | 492 kts | 182° |
| 2026-05-01 11:38 | 34.67776 | 126.70798 | 21993 ft | 492 kts | 182° |
| 2026-05-01 11:38 | 34.64360 | 126.70976 | 22008 ft | 492 kts | 182° |
| 2026-05-01 11:38 | 34.60928 | 126.71154 | 22001 ft | 492 kts | 182° |
| 2026-05-01 11:39 | 34.57509 | 126.71331 | 22008 ft | 492 kts | 182° |
| 2026-05-01 11:39 | 34.54086 | 126.71509 | 22002 ft | 492 kts | 182° |
| 2026-05-01 11:39 | 34.50660 | 126.71686 | 22007 ft | 491 kts | 182° |
| 2026-05-01 11:39 | 34.47257 | 126.71863 | 21895 ft | 487 kts | 182° |
| 2026-05-01 11:40 | 34.43877 | 126.72039 | 21620 ft | 482 kts | 182° |
| 2026-05-01 11:40 | 34.40560 | 126.72213 | 21249 ft | 473 kts | 182° |
| 2026-05-01 11:40 | 34.37301 | 126.72383 | 20871 ft | 465 kts | 182° |
| 2026-05-01 11:40 | 34.34098 | 126.72549 | 20494 ft | 457 kts | 182° |
| 2026-05-01 11:41 | 34.30950 | 126.72710 | 20131 ft | 449 kts | 182° |
| 2026-05-01 11:41 | 34.27851 | 126.72869 | 19776 ft | 442 kts | 182° |
| 2026-05-01 11:41 | 34.24789 | 126.73027 | 19414 ft | 438 kts | 182° |
| 2026-05-01 11:41 | 34.21787 | 126.73180 | 19069 ft | 437 kts | 182° |
| 2026-05-01 11:42 | 34.18755 | 126.73334 | 18730 ft | 435 kts | 182° |
| 2026-05-01 11:42 | 34.15726 | 126.73488 | 18392 ft | 434 kts | 182° |
| 2026-05-01 11:42 | 34.12718 | 126.73642 | 18010 ft | 432 kts | 182° |
| 2026-05-01 11:42 | 34.09716 | 126.73794 | 17573 ft | 430 kts | 182° |
| 2026-05-01 11:43 | 34.06738 | 126.73946 | 17095 ft | 425 kts | 182° |
| 2026-05-01 11:43 | 34.03789 | 126.74097 | 16591 ft | 417 kts | 182° |
| 2026-05-01 11:43 | 34.00955 | 126.74244 | 15968 ft | 400 kts | 181° |
| 2026-05-01 11:44 | 33.95572 | 126.74516 | 14613 ft | 377 kts | 181° |
| 2026-05-01 11:44 | 33.92968 | 126.74639 | 13773 ft | 373 kts | 181° |
| 2026-05-01 11:44 | 33.90315 | 126.74761 | 12684 ft | 387 kts | 180° |
| 2026-05-01 11:44 | 33.87639 | 126.74892 | 11605 ft | 383 kts | 179° |
| 2026-05-01 11:45 | 33.84984 | 126.75027 | 10567 ft | 379 kts | 178° |
| 2026-05-01 11:45 | 33.82360 | 126.75160 | 9471 ft | 376 kts | 177° |
| 2026-05-01 11:45 | 33.79762 | 126.75303 | 8323 ft | 372 kts | 177° |
| 2026-05-01 11:45 | 33.77197 | 126.75447 | 7221 ft | 367 kts | 178° |
| 2026-05-01 11:46 | 33.74667 | 126.75584 | 6118 ft | 362 kts | 178° |
| 2026-05-01 11:46 | 33.72167 | 126.75719 | 5000 ft | 356 kts | 178° |
| 2026-05-01 11:46 | 33.69710 | 126.75851 | 4005 ft | 348 kts | 179° |
| 2026-05-01 11:46 | 33.67350 | 126.75957 | 3401 ft | 328 kts | 182° |
| 2026-05-01 11:47 | 33.65255 | 126.75394 | 3137 ft | 292 kts | 212° |
| 2026-05-01 11:47 | 33.63794 | 126.73970 | 3087 ft | 253 kts | 234° |
| 2026-05-01 11:47 | 33.62904 | 126.72334 | 3082 ft | 221 kts | 246° |
| 2026-05-01 11:47 | 33.62215 | 126.70798 | 3108 ft | 192 kts | 246° |
| 2026-05-01 11:48 | 33.61585 | 126.69516 | 3112 ft | 172 kts | 244° |
| 2026-05-01 11:48 | 33.60970 | 126.68315 | 3103 ft | 166 kts | 244° |
| 2026-05-01 11:48 | 33.60364 | 126.67138 | 3104 ft | 165 kts | 244° |
| 2026-05-01 11:48 | 33.59763 | 126.65966 | 3103 ft | 165 kts | 244° |
| 2026-05-01 11:49 | 33.59161 | 126.64790 | 2973 ft | 165 kts | 244° |
| 2026-05-01 11:49 | 33.58564 | 126.63623 | 2766 ft | 164 kts | 245° |
| 2026-05-01 11:49 | 33.57973 | 126.62461 | 2530 ft | 162 kts | 244° |
| 2026-05-01 11:49 | 33.57393 | 126.61327 | 2316 ft | 156 kts | 244° |
| 2026-05-01 11:50 | 33.56838 | 126.60240 | 2103 ft | 151 kts | 244° |
| 2026-05-01 11:50 | 33.56292 | 126.59172 | 1892 ft | 149 kts | 244° |
| 2026-05-01 11:50 | 33.55752 | 126.58119 | 1701 ft | 147 kts | 244° |
| 2026-05-01 11:50 | 33.55220 | 126.57078 | 1478 ft | 146 kts | 245° |
| 2026-05-01 11:51 | 33.54691 | 126.56031 | 1296 ft | 147 kts | 244° |
| 2026-05-01 11:51 | 33.54162 | 126.54994 | 1092 ft | 145 kts | 240° |
| 2026-05-01 11:51 | 33.53636 | 126.53977 | 886 ft | 142 kts | 238° |
| 2026-05-01 11:51 | 33.53146 | 126.52972 | 741 ft | 139 kts | 238° |
| 2026-05-01 11:52 | 33.52657 | 126.51992 | 563 ft | 137 kts | 241° |
| 2026-05-01 11:52 | 33.52148 | 126.51029 | 355 ft | 135 kts | 239° |
| 2026-05-01 11:52 | 33.51658 | 126.50069 | 206 ft | 137 kts | 238° |
| 2026-05-01 11:52 | 33.51151 | 126.49093 | 96 ft | 127 kts | 238° |
| 2026-05-01 11:53 | 33.50747 | 126.48311 | 98 ft | 96 kts | 238° |
| 2026-05-01 11:53 | 33.50440 | 126.47720 | 102 ft | 72 kts | 238° |
| 2026-05-01 11:53 | 33.50212 | 126.47278 | 104 ft | 54 kts | 238° |
| 2026-05-01 11:53 | 33.50072 | 126.47010 | 102 ft | 30 kts | 238° |
| 2026-05-01 11:54 | 33.49949 | 126.46900 | 103 ft | 18 kts | 165° |
| 2026-05-01 11:54 | 33.49874 | 126.46987 | 104 ft | 6 kts | 95° |
| 2026-05-01 11:54 | 33.49890 | 126.47027 | 104 ft | 6 kts | 58° |
| 2026-05-01 11:54 | 33.49916 | 126.47080 | 104 ft | 8 kts | 60° |
| 2026-05-01 11:55 | 33.49950 | 126.47146 | 102 ft | 10 kts | 58° |
| 2026-05-01 11:55 | 33.49991 | 126.47227 | 103 ft | 12 kts | 59° |
| 2026-05-01 11:55 | 33.50039 | 126.47321 | 102 ft | 14 kts | 58° |
| 2026-05-01 11:55 | 33.50094 | 126.47426 | 103 ft | 16 kts | 58° |
| 2026-05-01 11:56 | 33.50153 | 126.47542 | 102 ft | 17 kts | 59° |
| 2026-05-01 11:56 | 33.50216 | 126.47668 | 102 ft | 18 kts | 60° |
| 2026-05-01 11:56 | 33.50284 | 126.47802 | 102 ft | 20 kts | 58° |
| 2026-05-01 11:56 | 33.50359 | 126.47946 | 101 ft | 21 kts | 58° |
| 2026-05-01 11:57 | 33.50439 | 126.48096 | 99 ft | 22 kts | 60° |
| 2026-05-01 11:57 | 33.50494 | 126.48205 | 101 ft | 23 kts | 58° |
| 2026-05-01 11:57 | 33.50608 | 126.48426 | 98 ft | 24 kts | 58° |
| 2026-05-01 11:57 | 33.50609 | 126.48507 | 99 ft | 7 kts | 126° |
| 2026-05-01 11:58 | 33.50569 | 126.48550 | 100 ft | 9 kts | 142° |
| 2026-05-01 11:58 | 33.50535 | 126.48610 | 99 ft | 9 kts | 97° |
| 2026-05-01 11:58 | 33.50529 | 126.48735 | 98 ft | 5 kts | 146° |
| 2026-05-01 11:59 | 33.50495 | 126.48760 | 99 ft | 6 kts | 149° |
| 2026-05-01 11:59 | 33.50489 | 126.48765 | 99 ft | 0 kts | 149° |